sensor_id;sensor_type;location;lat;lon;timestamp;P1;durP1;ratioP1;P2;durP2;ratioP2
7116;SDS011;3600;48.568;7.870;2022-08-01T00:02:00;2.60;;;2.30;;
7116;SDS011;3600;48.568;7.870;2022-08-01T00:04:27;3.72;;;2.28;;
7116;SDS011;3600;48.568;7.870;2022-08-01T00:06:54;2.72;;;2.53;;
7116;SDS011;3600;48.568;7.870;2022-08-01T00:09:20;2.67;;;2.55;;
7116;SDS011;3600;48.568;7.870;2022-08-01T00:11:49;2.15;;;2.03;;
7116;SDS011;3600;48.568;7.870;2022-08-01T00:14:25;3.80;;;2.15;;
7116;SDS011;3600;48.568;7.870;2022-08-01T00:16:57;3.67;;;2.70;;
7116;SDS011;3600;48.568;7.870;2022-08-01T00:19:32;2.67;;;2.45;;
7116;SDS011;3600;48.568;7.870;2022-08-01T00:21:59;3.05;;;2.60;;
7116;SDS011;3600;48.568;7.870;2022-08-01T00:24:26;2.40;;;2.30;;
7116;SDS011;3600;48.568;7.870;2022-08-01T00:26:53;4.78;;;2.80;;
7116;SDS011;3600;48.568;7.870;2022-08-01T00:29:19;2.75;;;2.50;;
7116;SDS011;3600;48.568;7.870;2022-08-01T00:32:06;3.38;;;2.15;;
7116;SDS011;3600;48.568;7.870;2022-08-01T00:34:33;2.78;;;2.58;;
7116;SDS011;3600;48.568;7.870;2022-08-01T00:37:00;2.78;;;2.35;;
7116;SDS011;3600;48.568;7.870;2022-08-01T00:39:27;2.22;;;2.13;;
7116;SDS011;3600;48.568;7.870;2022-08-01T00:41:53;2.85;;;2.65;;
7116;SDS011;3600;48.568;7.870;2022-08-01T00:44:25;2.70;;;2.40;;
7116;SDS011;3600;48.568;7.870;2022-08-01T00:46:52;2.55;;;2.40;;
7116;SDS011;3600;48.568;7.870;2022-08-01T00:49:19;3.70;;;2.70;;
7116;SDS011;3600;48.568;7.870;2022-08-01T00:51:46;3.05;;;2.60;;
7116;SDS011;3600;48.568;7.870;2022-08-01T00:54:14;2.92;;;2.72;;
7116;SDS011;3600;48.568;7.870;2022-08-01T00:56:42;4.00;;;2.47;;
7116;SDS011;3600;48.568;7.870;2022-08-01T00:59:09;2.90;;;2.70;;
7116;SDS011;3600;48.568;7.870;2022-08-01T01:01:39;3.15;;;2.85;;
7116;SDS011;3600;48.568;7.870;2022-08-01T01:04:12;3.05;;;2.70;;
7116;SDS011;3600;48.568;7.870;2022-08-01T01:14:26;3.03;;;2.83;;
7116;SDS011;3600;48.568;7.870;2022-08-01T01:17:01;3.63;;;3.08;;
7116;SDS011;3600;48.568;7.870;2022-08-01T01:19:33;5.03;;;2.90;;
7116;SDS011;3600;48.568;7.870;2022-08-01T01:22:14;4.65;;;3.30;;
7116;SDS011;3600;48.568;7.870;2022-08-01T01:28:12;3.20;;;2.63;;
7116;SDS011;3600;48.568;7.870;2022-08-01T01:30:41;2.70;;;2.47;;
7116;SDS011;3600;48.568;7.870;2022-08-01T01:33:10;3.28;;;2.80;;
7116;SDS011;3600;48.568;7.870;2022-08-01T01:35:41;3.35;;;3.05;;
7116;SDS011;3600;48.568;7.870;2022-08-01T01:38:14;3.30;;;3.00;;
7116;SDS011;3600;48.568;7.870;2022-08-01T01:40:47;2.80;;;2.60;;
7116;SDS011;3600;48.568;7.870;2022-08-01T01:43:16;2.83;;;2.63;;
7116;SDS011;3600;48.568;7.870;2022-08-01T01:45:44;3.72;;;2.90;;
7116;SDS011;3600;48.568;7.870;2022-08-01T01:48:13;3.00;;;2.70;;
7116;SDS011;3600;48.568;7.870;2022-08-01T01:50:43;3.38;;;2.90;;
7116;SDS011;3600;48.568;7.870;2022-08-01T01:53:12;2.97;;;2.78;;
7116;SDS011;3600;48.568;7.870;2022-08-01T01:55:43;2.92;;;2.63;;
7116;SDS011;3600;48.568;7.870;2022-08-01T01:58:15;4.43;;;3.00;;
7116;SDS011;3600;48.568;7.870;2022-08-01T02:00:44;3.13;;;2.92;;
7116;SDS011;3600;48.568;7.870;2022-08-01T02:03:15;3.10;;;2.90;;
7116;SDS011;3600;48.568;7.870;2022-08-01T02:05:43;3.17;;;2.95;;
7116;SDS011;3600;48.568;7.870;2022-08-01T02:08:11;2.90;;;2.70;;
7116;SDS011;3600;48.568;7.870;2022-08-01T02:10:42;2.85;;;2.65;;
7116;SDS011;3600;48.568;7.870;2022-08-01T02:13:31;2.50;;;2.35;;
7116;SDS011;3600;48.568;7.870;2022-08-01T02:16:00;2.97;;;2.65;;
7116;SDS011;3600;48.568;7.870;2022-08-01T02:18:27;2.85;;;2.40;;
7116;SDS011;3600;48.568;7.870;2022-08-01T02:20:54;2.85;;;2.60;;
7116;SDS011;3600;48.568;7.870;2022-08-01T02:23:23;4.03;;;2.65;;
7116;SDS011;3600;48.568;7.870;2022-08-01T02:25:57;3.08;;;2.78;;
7116;SDS011;3600;48.568;7.870;2022-08-01T02:28:38;3.03;;;2.80;;
7116;SDS011;3600;48.568;7.870;2022-08-01T02:31:12;3.13;;;2.75;;
7116;SDS011;3600;48.568;7.870;2022-08-01T02:33:43;2.85;;;2.65;;
7116;SDS011;3600;48.568;7.870;2022-08-01T02:36:13;3.15;;;2.95;;
7116;SDS011;3600;48.568;7.870;2022-08-01T02:38:57;2.70;;;2.50;;
7116;SDS011;3600;48.568;7.870;2022-08-01T02:41:27;3.20;;;3.00;;
7116;SDS011;3600;48.568;7.870;2022-08-01T02:43:57;3.10;;;2.78;;
7116;SDS011;3600;48.568;7.870;2022-08-01T02:46:29;3.50;;;3.17;;
7116;SDS011;3600;48.568;7.870;2022-08-01T02:49:18;2.83;;;2.70;;
7116;SDS011;3600;48.568;7.870;2022-08-01T02:51:47;4.28;;;2.95;;
7116;SDS011;3600;48.568;7.870;2022-08-01T02:54:16;5.45;;;3.05;;
7116;SDS011;3600;48.568;7.870;2022-08-01T02:56:44;3.22;;;2.92;;
7116;SDS011;3600;48.568;7.870;2022-08-01T02:59:15;4.53;;;3.33;;
7116;SDS011;3600;48.568;7.870;2022-08-01T03:01:47;4.07;;;3.67;;
7116;SDS011;3600;48.568;7.870;2022-08-01T03:04:15;3.70;;;3.40;;
7116;SDS011;3600;48.568;7.870;2022-08-01T03:06:45;5.50;;;3.55;;
7116;SDS011;3600;48.568;7.870;2022-08-01T03:09:13;5.07;;;3.67;;
7116;SDS011;3600;48.568;7.870;2022-08-01T03:11:42;4.43;;;3.63;;
7116;SDS011;3600;48.568;7.870;2022-08-01T03:14:10;3.53;;;3.22;;
7116;SDS011;3600;48.568;7.870;2022-08-01T03:16:38;3.38;;;3.08;;
7116;SDS011;3600;48.568;7.870;2022-08-01T03:19:08;4.03;;;3.10;;
7116;SDS011;3600;48.568;7.870;2022-08-01T03:21:38;3.97;;;3.28;;
7116;SDS011;3600;48.568;7.870;2022-08-01T03:24:07;4.10;;;3.55;;
7116;SDS011;3600;48.568;7.870;2022-08-01T03:26:36;3.15;;;2.90;;
7116;SDS011;3600;48.568;7.870;2022-08-01T03:29:05;7.18;;;3.53;;
7116;SDS011;3600;48.568;7.870;2022-08-01T03:31:36;4.03;;;3.70;;
7116;SDS011;3600;48.568;7.870;2022-08-01T03:34:04;4.20;;;3.80;;
7116;SDS011;3600;48.568;7.870;2022-08-01T03:36:33;3.67;;;3.13;;
7116;SDS011;3600;48.568;7.870;2022-08-01T03:39:04;3.13;;;2.92;;
7116;SDS011;3600;48.568;7.870;2022-08-01T03:41:38;3.80;;;3.50;;
7116;SDS011;3600;48.568;7.870;2022-08-01T03:44:08;3.47;;;3.20;;
7116;SDS011;3600;48.568;7.870;2022-08-01T03:46:43;3.42;;;3.13;;
7116;SDS011;3600;48.568;7.870;2022-08-01T03:49:22;3.50;;;3.20;;
7116;SDS011;3600;48.568;7.870;2022-08-01T03:51:51;3.35;;;3.15;;
7116;SDS011;3600;48.568;7.870;2022-08-01T03:54:27;3.85;;;3.28;;
7116;SDS011;3600;48.568;7.870;2022-08-01T03:56:57;3.03;;;2.83;;
7116;SDS011;3600;48.568;7.870;2022-08-01T03:59:24;3.95;;;2.80;;
7116;SDS011;3600;48.568;7.870;2022-08-01T04:01:52;3.10;;;2.80;;
7116;SDS011;3600;48.568;7.870;2022-08-01T04:04:20;3.35;;;3.15;;
7116;SDS011;3600;48.568;7.870;2022-08-01T04:06:47;3.25;;;2.97;;
7116;SDS011;3600;48.568;7.870;2022-08-01T04:09:17;3.40;;;3.10;;
7116;SDS011;3600;48.568;7.870;2022-08-01T04:11:44;3.60;;;3.30;;
7116;SDS011;3600;48.568;7.870;2022-08-01T04:14:11;3.47;;;3.17;;
7116;SDS011;3600;48.568;7.870;2022-08-01T04:16:37;3.92;;;3.20;;
7116;SDS011;3600;48.568;7.870;2022-08-01T04:19:04;3.80;;;3.50;;
7116;SDS011;3600;48.568;7.870;2022-08-01T04:21:34;3.30;;;3.00;;
7116;SDS011;3600;48.568;7.870;2022-08-01T04:24:07;3.88;;;3.53;;
7116;SDS011;3600;48.568;7.870;2022-08-01T04:26:38;3.40;;;3.10;;
7116;SDS011;3600;48.568;7.870;2022-08-01T04:29:07;4.03;;;3.58;;
7116;SDS011;3600;48.568;7.870;2022-08-01T04:31:36;6.22;;;3.50;;
7116;SDS011;3600;48.568;7.870;2022-08-01T04:34:06;3.33;;;3.03;;
7116;SDS011;3600;48.568;7.870;2022-08-01T04:36:35;3.85;;;3.35;;
7116;SDS011;3600;48.568;7.870;2022-08-01T04:39:03;3.95;;;3.65;;
7116;SDS011;3600;48.568;7.870;2022-08-01T04:41:32;3.60;;;3.30;;
7116;SDS011;3600;48.568;7.870;2022-08-01T04:43:59;4.53;;;3.50;;
7116;SDS011;3600;48.568;7.870;2022-08-01T04:46:26;3.42;;;3.13;;
7116;SDS011;3600;48.568;7.870;2022-08-01T04:48:55;4.00;;;3.50;;
7116;SDS011;3600;48.568;7.870;2022-08-01T04:51:22;3.67;;;3.38;;
7116;SDS011;3600;48.568;7.870;2022-08-01T04:53:49;3.38;;;3.17;;
7116;SDS011;3600;48.568;7.870;2022-08-01T04:56:19;4.03;;;3.63;;
7116;SDS011;3600;48.568;7.870;2022-08-01T04:58:47;3.50;;;3.20;;
7116;SDS011;3600;48.568;7.870;2022-08-01T05:01:14;3.30;;;3.10;;
7116;SDS011;3600;48.568;7.870;2022-08-01T05:03:41;3.25;;;2.95;;
7116;SDS011;3600;48.568;7.870;2022-08-01T05:06:09;3.22;;;2.92;;
7116;SDS011;3600;48.568;7.870;2022-08-01T05:08:35;4.95;;;2.88;;
7116;SDS011;3600;48.568;7.870;2022-08-01T05:11:02;3.33;;;2.88;;
7116;SDS011;3600;48.568;7.870;2022-08-01T05:13:29;3.05;;;2.78;;
7116;SDS011;3600;48.568;7.870;2022-08-01T05:15:56;3.33;;;3.03;;
7116;SDS011;3600;48.568;7.870;2022-08-01T05:18:24;3.10;;;2.85;;
7116;SDS011;3600;48.568;7.870;2022-08-01T05:20:54;3.30;;;3.00;;
7116;SDS011;3600;48.568;7.870;2022-08-01T05:23:21;3.17;;;2.88;;
7116;SDS011;3600;48.568;7.870;2022-08-01T05:26:07;4.75;;;2.80;;
7116;SDS011;3600;48.568;7.870;2022-08-01T05:28:35;5.20;;;3.08;;
7116;SDS011;3600;48.568;7.870;2022-08-01T05:31:02;5.30;;;3.40;;
7116;SDS011;3600;48.568;7.870;2022-08-01T05:33:29;4.10;;;3.42;;
7116;SDS011;3600;48.568;7.870;2022-08-01T05:35:56;8.55;;;3.17;;
7116;SDS011;3600;48.568;7.870;2022-08-01T05:38:23;4.97;;;2.92;;
7116;SDS011;3600;48.568;7.870;2022-08-01T05:40:50;4.78;;;3.00;;
7116;SDS011;3600;48.568;7.870;2022-08-01T05:43:17;4.47;;;3.10;;
7116;SDS011;3600;48.568;7.870;2022-08-01T05:45:43;3.00;;;2.80;;
7116;SDS011;3600;48.568;7.870;2022-08-01T05:48:12;3.60;;;3.00;;
7116;SDS011;3600;48.568;7.870;2022-08-01T05:50:38;4.65;;;2.70;;
7116;SDS011;3600;48.568;7.870;2022-08-01T05:53:05;3.17;;;2.95;;
7116;SDS011;3600;48.568;7.870;2022-08-01T05:55:32;3.13;;;2.92;;
7116;SDS011;3600;48.568;7.870;2022-08-01T05:57:59;3.83;;;2.80;;
7116;SDS011;3600;48.568;7.870;2022-08-01T06:00:26;3.20;;;2.78;;
7116;SDS011;3600;48.568;7.870;2022-08-01T06:02:52;3.95;;;3.28;;
7116;SDS011;3600;48.568;7.870;2022-08-01T06:05:19;3.50;;;3.20;;
7116;SDS011;3600;48.568;7.870;2022-08-01T06:07:46;3.90;;;3.15;;
7116;SDS011;3600;48.568;7.870;2022-08-01T06:10:13;6.47;;;3.78;;
7116;SDS011;3600;48.568;7.870;2022-08-01T06:12:40;3.40;;;3.10;;
7116;SDS011;3600;48.568;7.870;2022-08-01T06:15:07;3.80;;;2.80;;
7116;SDS011;3600;48.568;7.870;2022-08-01T06:17:34;3.00;;;2.70;;
7116;SDS011;3600;48.568;7.870;2022-08-01T06:20:00;3.75;;;3.10;;
7116;SDS011;3600;48.568;7.870;2022-08-01T06:22:28;3.58;;;3.28;;
7116;SDS011;3600;48.568;7.870;2022-08-01T06:24:56;4.55;;;2.92;;
7116;SDS011;3600;48.568;7.870;2022-08-01T06:27:23;3.55;;;2.90;;
7116;SDS011;3600;48.568;7.870;2022-08-01T06:29:52;3.85;;;2.75;;
7116;SDS011;3600;48.568;7.870;2022-08-01T06:32:22;5.70;;;3.00;;
7116;SDS011;3600;48.568;7.870;2022-08-01T06:34:52;3.53;;;2.83;;
7116;SDS011;3600;48.568;7.870;2022-08-01T06:37:20;3.30;;;3.00;;
7116;SDS011;3600;48.568;7.870;2022-08-01T06:39:47;3.40;;;3.10;;
7116;SDS011;3600;48.568;7.870;2022-08-01T06:42:15;3.63;;;3.03;;
7116;SDS011;3600;48.568;7.870;2022-08-01T06:44:42;4.25;;;2.88;;
7116;SDS011;3600;48.568;7.870;2022-08-01T06:47:09;4.88;;;3.20;;
7116;SDS011;3600;48.568;7.870;2022-08-01T06:49:36;4.18;;;2.95;;
7116;SDS011;3600;48.568;7.870;2022-08-01T06:52:03;2.97;;;2.63;;
7116;SDS011;3600;48.568;7.870;2022-08-01T06:54:30;3.72;;;3.42;;
7116;SDS011;3600;48.568;7.870;2022-08-01T06:56:57;2.83;;;2.60;;
7116;SDS011;3600;48.568;7.870;2022-08-01T06:59:25;3.15;;;2.85;;
7116;SDS011;3600;48.568;7.870;2022-08-01T07:01:52;3.38;;;3.08;;
7116;SDS011;3600;48.568;7.870;2022-08-01T07:04:18;3.40;;;2.85;;
7116;SDS011;3600;48.568;7.870;2022-08-01T07:06:45;3.97;;;3.25;;
7116;SDS011;3600;48.568;7.870;2022-08-01T07:09:12;3.28;;;2.97;;
7116;SDS011;3600;48.568;7.870;2022-08-01T07:11:40;4.63;;;2.72;;
7116;SDS011;3600;48.568;7.870;2022-08-01T07:14:07;3.72;;;3.42;;
7116;SDS011;3600;48.568;7.870;2022-08-01T07:16:34;3.67;;;3.10;;
7116;SDS011;3600;48.568;7.870;2022-08-01T07:19:01;3.45;;;3.00;;
7116;SDS011;3600;48.568;7.870;2022-08-01T07:21:28;3.33;;;3.05;;
7116;SDS011;3600;48.568;7.870;2022-08-01T07:24:10;3.78;;;3.08;;
7116;SDS011;3600;48.568;7.870;2022-08-01T07:26:43;2.70;;;2.50;;
7116;SDS011;3600;48.568;7.870;2022-08-01T07:29:19;3.25;;;2.88;;
7116;SDS011;3600;48.568;7.870;2022-08-01T07:31:53;4.07;;;3.20;;
7116;SDS011;3600;48.568;7.870;2022-08-01T07:34:21;5.88;;;3.15;;
7116;SDS011;3600;48.568;7.870;2022-08-01T07:36:49;3.13;;;2.78;;
7116;SDS011;3600;48.568;7.870;2022-08-01T07:39:16;6.13;;;3.33;;
7116;SDS011;3600;48.568;7.870;2022-08-01T07:41:43;3.78;;;3.33;;
7116;SDS011;3600;48.568;7.870;2022-08-01T07:44:30;3.60;;;3.30;;
7116;SDS011;3600;48.568;7.870;2022-08-01T07:46:57;3.80;;;3.10;;
7116;SDS011;3600;48.568;7.870;2022-08-01T07:49:23;3.50;;;3.08;;
7116;SDS011;3600;48.568;7.870;2022-08-01T07:51:51;3.40;;;3.10;;
7116;SDS011;3600;48.568;7.870;2022-08-01T07:54:30;5.25;;;3.38;;
7116;SDS011;3600;48.568;7.870;2022-08-01T07:56:59;3.58;;;3.28;;
7116;SDS011;3600;48.568;7.870;2022-08-01T07:59:26;4.00;;;3.20;;
7116;SDS011;3600;48.568;7.870;2022-08-01T08:01:53;5.43;;;3.10;;
7116;SDS011;3600;48.568;7.870;2022-08-01T08:04:20;4.22;;;3.25;;
7116;SDS011;3600;48.568;7.870;2022-08-01T08:06:47;3.13;;;2.83;;
7116;SDS011;3600;48.568;7.870;2022-08-01T08:09:15;3.00;;;2.80;;
7116;SDS011;3600;48.568;7.870;2022-08-01T08:11:43;4.00;;;3.28;;
7116;SDS011;3600;48.568;7.870;2022-08-01T08:14:13;8.15;;;3.45;;
7116;SDS011;3600;48.568;7.870;2022-08-01T08:16:40;3.05;;;2.85;;
7116;SDS011;3600;48.568;7.870;2022-08-01T08:19:07;3.25;;;3.05;;
7116;SDS011;3600;48.568;7.870;2022-08-01T08:21:34;4.47;;;3.35;;
7116;SDS011;3600;48.568;7.870;2022-08-01T08:24:02;3.60;;;3.33;;
7116;SDS011;3600;48.568;7.870;2022-08-01T08:26:56;3.65;;;3.33;;
7116;SDS011;3600;48.568;7.870;2022-08-01T08:29:24;6.22;;;3.42;;
7116;SDS011;3600;48.568;7.870;2022-08-01T08:31:52;6.13;;;3.45;;
7116;SDS011;3600;48.568;7.870;2022-08-01T08:34:22;6.60;;;3.75;;
7116;SDS011;3600;48.568;7.870;2022-08-01T08:36:49;4.03;;;3.63;;
7116;SDS011;3600;48.568;7.870;2022-08-01T08:39:17;3.63;;;3.33;;
7116;SDS011;3600;48.568;7.870;2022-08-01T08:41:45;3.38;;;3.10;;
7116;SDS011;3600;48.568;7.870;2022-08-01T08:44:15;4.18;;;3.72;;
7116;SDS011;3600;48.568;7.870;2022-08-01T08:46:43;3.58;;;3.13;;
7116;SDS011;3600;48.568;7.870;2022-08-01T08:49:13;5.07;;;3.70;;
7116;SDS011;3600;48.568;7.870;2022-08-01T08:51:45;4.13;;;3.72;;
7116;SDS011;3600;48.568;7.870;2022-08-01T08:54:15;4.10;;;3.33;;
7116;SDS011;3600;48.568;7.870;2022-08-01T08:56:43;3.78;;;3.20;;
7116;SDS011;3600;48.568;7.870;2022-08-01T08:59:13;3.95;;;3.40;;
7116;SDS011;3600;48.568;7.870;2022-08-01T09:01:41;3.70;;;2.70;;
7116;SDS011;3600;48.568;7.870;2022-08-01T09:04:09;4.72;;;3.05;;
7116;SDS011;3600;48.568;7.870;2022-08-01T09:06:37;4.97;;;3.08;;
7116;SDS011;3600;48.568;7.870;2022-08-01T09:09:05;3.40;;;3.10;;
7116;SDS011;3600;48.568;7.870;2022-08-01T09:11:33;3.80;;;3.40;;
7116;SDS011;3600;48.568;7.870;2022-08-01T09:14:01;3.83;;;3.00;;
7116;SDS011;3600;48.568;7.870;2022-08-01T09:16:30;3.63;;;3.33;;
7116;SDS011;3600;48.568;7.870;2022-08-01T09:19:34;4.20;;;3.25;;
7116;SDS011;3600;48.568;7.870;2022-08-01T09:22:07;5.35;;;3.25;;
7116;SDS011;3600;48.568;7.870;2022-08-01T09:24:36;6.65;;;3.42;;
7116;SDS011;3600;48.568;7.870;2022-08-01T09:27:21;3.60;;;3.30;;
7116;SDS011;3600;48.568;7.870;2022-08-01T09:29:52;6.18;;;3.53;;
7116;SDS011;3600;48.568;7.870;2022-08-01T09:32:30;3.28;;;2.95;;
7116;SDS011;3600;48.568;7.870;2022-08-01T09:35:21;3.47;;;3.20;;
7116;SDS011;3600;48.568;7.870;2022-08-01T09:41:27;3.58;;;3.22;;
7116;SDS011;3600;48.568;7.870;2022-08-01T09:43:39;3.28;;;2.97;;
7116;SDS011;3600;48.568;7.870;2022-08-01T09:46:15;3.10;;;2.90;;
7116;SDS011;3600;48.568;7.870;2022-08-01T09:48:58;3.50;;;3.20;;
7116;SDS011;3600;48.568;7.870;2022-08-01T09:51:36;3.97;;;3.58;;
7116;SDS011;3600;48.568;7.870;2022-08-01T09:54:31;3.30;;;3.00;;
7116;SDS011;3600;48.568;7.870;2022-08-01T09:59:41;4.00;;;3.67;;
7116;SDS011;3600;48.568;7.870;2022-08-01T10:04:57;3.95;;;3.17;;
7116;SDS011;3600;48.568;7.870;2022-08-01T10:07:35;4.10;;;3.42;;
7116;SDS011;3600;48.568;7.870;2022-08-01T10:10:23;4.60;;;3.25;;
7116;SDS011;3600;48.568;7.870;2022-08-01T10:12:59;3.70;;;3.40;;
7116;SDS011;3600;48.568;7.870;2022-08-01T10:15:28;3.40;;;3.20;;
7116;SDS011;3600;48.568;7.870;2022-08-01T10:18:04;4.93;;;3.17;;
7116;SDS011;3600;48.568;7.870;2022-08-01T10:20:42;3.92;;;3.63;;
7116;SDS011;3600;48.568;7.870;2022-08-01T10:23:09;4.20;;;3.55;;
7116;SDS011;3600;48.568;7.870;2022-08-01T10:25:36;4.22;;;3.10;;
7116;SDS011;3600;48.568;7.870;2022-08-01T10:28:16;3.10;;;2.90;;
7116;SDS011;3600;48.568;7.870;2022-08-01T10:30:49;3.20;;;2.90;;
7116;SDS011;3600;48.568;7.870;2022-08-01T10:33:18;6.40;;;3.60;;
7116;SDS011;3600;48.568;7.870;2022-08-01T10:36:08;3.60;;;3.30;;
7116;SDS011;3600;48.568;7.870;2022-08-01T10:38:35;2.75;;;2.55;;
7116;SDS011;3600;48.568;7.870;2022-08-01T10:41:03;3.35;;;3.08;;
7116;SDS011;3600;48.568;7.870;2022-08-01T10:43:34;3.75;;;3.25;;
7116;SDS011;3600;48.568;7.870;2022-08-01T10:46:02;3.30;;;3.00;;
7116;SDS011;3600;48.568;7.870;2022-08-01T10:51:08;3.60;;;3.30;;
7116;SDS011;3600;48.568;7.870;2022-08-01T10:53:47;3.30;;;3.05;;
7116;SDS011;3600;48.568;7.870;2022-08-01T10:56:22;5.07;;;3.17;;
7116;SDS011;3600;48.568;7.870;2022-08-01T10:58:55;3.60;;;3.30;;
7116;SDS011;3600;48.568;7.870;2022-08-01T11:01:32;3.45;;;2.97;;
7116;SDS011;3600;48.568;7.870;2022-08-01T11:04:04;3.78;;;2.88;;
7116;SDS011;3600;48.568;7.870;2022-08-01T11:09:15;3.00;;;2.80;;
7116;SDS011;3600;48.568;7.870;2022-08-01T11:12:10;3.58;;;3.20;;
7116;SDS011;3600;48.568;7.870;2022-08-01T11:20:15;3.00;;;2.75;;
7116;SDS011;3600;48.568;7.870;2022-08-01T11:28:23;3.33;;;3.00;;
7116;SDS011;3600;48.568;7.870;2022-08-01T11:41:39;2.75;;;2.55;;
7116;SDS011;3600;48.568;7.870;2022-08-01T11:44:10;3.13;;;2.92;;
7116;SDS011;3600;48.568;7.870;2022-08-01T11:49:42;4.78;;;3.05;;
7116;SDS011;3600;48.568;7.870;2022-08-01T11:52:19;2.75;;;2.50;;
7116;SDS011;3600;48.568;7.870;2022-08-01T11:55:07;3.10;;;2.80;;
7116;SDS011;3600;48.568;7.870;2022-08-01T11:57:37;2.70;;;2.50;;
7116;SDS011;3600;48.568;7.870;2022-08-01T12:00:09;2.92;;;2.72;;
7116;SDS011;3600;48.568;7.870;2022-08-01T12:02:43;3.28;;;2.97;;
7116;SDS011;3600;48.568;7.870;2022-08-01T12:05:12;2.95;;;2.55;;
7116;SDS011;3600;48.568;7.870;2022-08-01T12:07:43;2.88;;;2.67;;
7116;SDS011;3600;48.568;7.870;2022-08-01T12:10:13;3.13;;;2.92;;
7116;SDS011;3600;48.568;7.870;2022-08-01T12:12:46;2.72;;;2.53;;
7116;SDS011;3600;48.568;7.870;2022-08-01T12:15:17;2.55;;;2.33;;
7116;SDS011;3600;48.568;7.870;2022-08-01T12:17:49;2.90;;;2.70;;
7116;SDS011;3600;48.568;7.870;2022-08-01T12:20:26;3.40;;;2.70;;
7116;SDS011;3600;48.568;7.870;2022-08-01T12:22:57;2.58;;;2.38;;
7116;SDS011;3600;48.568;7.870;2022-08-01T12:25:34;2.60;;;2.40;;
7116;SDS011;3600;48.568;7.870;2022-08-01T12:28:03;3.10;;;2.80;;
7116;SDS011;3600;48.568;7.870;2022-08-01T12:30:31;3.55;;;2.92;;
7116;SDS011;3600;48.568;7.870;2022-08-01T12:33:03;2.80;;;2.60;;
7116;SDS011;3600;48.568;7.870;2022-08-01T12:35:32;2.63;;;2.42;;
7116;SDS011;3600;48.568;7.870;2022-08-01T12:38:01;2.88;;;2.67;;
7116;SDS011;3600;48.568;7.870;2022-08-01T12:40:30;2.80;;;2.25;;
7116;SDS011;3600;48.568;7.870;2022-08-01T12:43:00;4.03;;;2.47;;
7116;SDS011;3600;48.568;7.870;2022-08-01T12:47:57;2.97;;;2.70;;
7116;SDS011;3600;48.568;7.870;2022-08-01T12:50:27;3.10;;;2.88;;
7116;SDS011;3600;48.568;7.870;2022-08-01T12:52:56;2.70;;;2.50;;
7116;SDS011;3600;48.568;7.870;2022-08-01T12:55:26;4.43;;;2.60;;
7116;SDS011;3600;48.568;7.870;2022-08-01T12:58:18;4.18;;;2.78;;
7116;SDS011;3600;48.568;7.870;2022-08-01T13:00:46;2.22;;;2.13;;
7116;SDS011;3600;48.568;7.870;2022-08-01T13:03:15;2.35;;;2.20;;
7116;SDS011;3600;48.568;7.870;2022-08-01T13:05:51;3.85;;;2.20;;
7116;SDS011;3600;48.568;7.870;2022-08-01T13:08:32;2.50;;;1.67;;
7116;SDS011;3600;48.568;7.870;2022-08-01T13:11:04;2.30;;;1.90;;
7116;SDS011;3600;48.568;7.870;2022-08-01T13:13:39;2.23;;;2.03;;
7116;SDS011;3600;48.568;7.870;2022-08-01T13:16:14;2.50;;;1.80;;
7116;SDS011;3600;48.568;7.870;2022-08-01T13:19:03;2.00;;;1.90;;
7116;SDS011;3600;48.568;7.870;2022-08-01T13:21:31;2.17;;;2.03;;
7116;SDS011;3600;48.568;7.870;2022-08-01T13:24:22;3.28;;;2.20;;
7116;SDS011;3600;48.568;7.870;2022-08-01T13:26:54;1.95;;;1.67;;
7116;SDS011;3600;48.568;7.870;2022-08-01T13:29:30;2.00;;;1.75;;
7116;SDS011;3600;48.568;7.870;2022-08-01T13:32:14;4.33;;;2.17;;
7116;SDS011;3600;48.568;7.870;2022-08-01T13:35:08;2.08;;;1.70;;
7116;SDS011;3600;48.568;7.870;2022-08-01T13:37:36;2.63;;;1.70;;
7116;SDS011;3600;48.568;7.870;2022-08-01T13:40:05;1.90;;;1.80;;
7116;SDS011;3600;48.568;7.870;2022-08-01T13:42:33;1.58;;;1.48;;
7116;SDS011;3600;48.568;7.870;2022-08-01T13:45:00;1.92;;;1.70;;
7116;SDS011;3600;48.568;7.870;2022-08-01T13:47:28;1.70;;;1.60;;
7116;SDS011;3600;48.568;7.870;2022-08-01T13:49:58;1.75;;;1.65;;
7116;SDS011;3600;48.568;7.870;2022-08-01T13:52:29;2.00;;;1.90;;
7116;SDS011;3600;48.568;7.870;2022-08-01T13:54:57;1.75;;;1.65;;
7116;SDS011;3600;48.568;7.870;2022-08-01T13:57:24;2.10;;;1.92;;
7116;SDS011;3600;48.568;7.870;2022-08-01T14:00:03;2.00;;;1.90;;
7116;SDS011;3600;48.568;7.870;2022-08-01T14:02:33;1.77;;;1.67;;
7116;SDS011;3600;48.568;7.870;2022-08-01T14:05:00;1.95;;;1.83;;
7116;SDS011;3600;48.568;7.870;2022-08-01T14:07:27;1.70;;;1.60;;
7116;SDS011;3600;48.568;7.870;2022-08-01T14:09:55;2.97;;;2.25;;
7116;SDS011;3600;48.568;7.870;2022-08-01T14:12:42;2.45;;;1.70;;
7116;SDS011;3600;48.568;7.870;2022-08-01T14:15:11;3.38;;;1.80;;
7116;SDS011;3600;48.568;7.870;2022-08-01T14:17:38;1.65;;;1.55;;
7116;SDS011;3600;48.568;7.870;2022-08-01T14:20:13;1.58;;;1.48;;
7116;SDS011;3600;48.568;7.870;2022-08-01T14:22:40;2.42;;;1.33;;
7116;SDS011;3600;48.568;7.870;2022-08-01T14:25:07;1.55;;;1.42;;
7116;SDS011;3600;48.568;7.870;2022-08-01T14:27:34;1.73;;;1.52;;
7116;SDS011;3600;48.568;7.870;2022-08-01T14:30:05;1.60;;;1.50;;
7116;SDS011;3600;48.568;7.870;2022-08-01T14:32:32;1.33;;;1.27;;
7116;SDS011;3600;48.568;7.870;2022-08-01T14:35:00;3.72;;;1.23;;
7116;SDS011;3600;48.568;7.870;2022-08-01T14:37:27;1.17;;;1.08;;
7116;SDS011;3600;48.568;7.870;2022-08-01T14:39:59;1.97;;;1.50;;
7116;SDS011;3600;48.568;7.870;2022-08-01T14:42:32;2.15;;;0.85;;
7116;SDS011;3600;48.568;7.870;2022-08-01T14:44:59;1.27;;;1.17;;
7116;SDS011;3600;48.568;7.870;2022-08-01T14:47:26;1.00;;;1.00;;
7116;SDS011;3600;48.568;7.870;2022-08-01T14:49:52;1.40;;;1.23;;
7116;SDS011;3600;48.568;7.870;2022-08-01T14:52:19;1.47;;;1.20;;
7116;SDS011;3600;48.568;7.870;2022-08-01T14:54:46;2.40;;;1.20;;
7116;SDS011;3600;48.568;7.870;2022-08-01T14:57:13;1.00;;;0.95;;
7116;SDS011;3600;48.568;7.870;2022-08-01T14:59:44;1.48;;;1.10;;
7116;SDS011;3600;48.568;7.870;2022-08-01T15:02:11;1.00;;;1.00;;
7116;SDS011;3600;48.568;7.870;2022-08-01T15:04:38;0.80;;;0.80;;
7116;SDS011;3600;48.568;7.870;2022-08-01T15:07:05;1.15;;;1.10;;
7116;SDS011;3600;48.568;7.870;2022-08-01T15:09:32;1.27;;;1.00;;
7116;SDS011;3600;48.568;7.870;2022-08-01T15:11:59;1.08;;;1.08;;
7116;SDS011;3600;48.568;7.870;2022-08-01T15:14:25;0.80;;;0.80;;
7116;SDS011;3600;48.568;7.870;2022-08-01T15:17:11;3.65;;;1.23;;
7116;SDS011;3600;48.568;7.870;2022-08-01T15:19:37;2.17;;;0.63;;
7116;SDS011;3600;48.568;7.870;2022-08-01T15:22:08;1.08;;;0.98;;
7116;SDS011;3600;48.568;7.870;2022-08-01T15:24:35;3.05;;;0.80;;
7116;SDS011;3600;48.568;7.870;2022-08-01T15:27:02;0.77;;;0.77;;
7116;SDS011;3600;48.568;7.870;2022-08-01T15:29:29;2.38;;;0.85;;
7116;SDS011;3600;48.568;7.870;2022-08-01T15:31:56;0.93;;;0.80;;
7116;SDS011;3600;48.568;7.870;2022-08-01T15:34:22;0.70;;;0.70;;
7116;SDS011;3600;48.568;7.870;2022-08-01T15:36:49;2.63;;;1.00;;
7116;SDS011;3600;48.568;7.870;2022-08-01T15:39:16;1.55;;;0.82;;
7116;SDS011;3600;48.568;7.870;2022-08-01T15:41:43;3.60;;;1.10;;
7116;SDS011;3600;48.568;7.870;2022-08-01T15:44:10;1.15;;;0.95;;
7116;SDS011;3600;48.568;7.870;2022-08-01T15:46:37;1.05;;;0.90;;
7116;SDS011;3600;48.568;7.870;2022-08-01T15:49:04;0.90;;;0.82;;
7116;SDS011;3600;48.568;7.870;2022-08-01T15:51:31;1.98;;;0.73;;
7116;SDS011;3600;48.568;7.870;2022-08-01T15:53:59;0.95;;;0.75;;
7116;SDS011;3600;48.568;7.870;2022-08-01T15:56:39;1.88;;;0.70;;
7116;SDS011;3600;48.568;7.870;2022-08-01T15:59:06;1.50;;;0.93;;
7116;SDS011;3600;48.568;7.870;2022-08-01T16:01:34;0.73;;;0.55;;
7116;SDS011;3600;48.568;7.870;2022-08-01T16:04:01;0.88;;;0.75;;
7116;SDS011;3600;48.568;7.870;2022-08-01T16:06:28;2.08;;;0.90;;
7116;SDS011;3600;48.568;7.870;2022-08-01T16:08:55;1.15;;;0.70;;
7116;SDS011;3600;48.568;7.870;2022-08-01T16:11:22;0.80;;;0.80;;
7116;SDS011;3600;48.568;7.870;2022-08-01T16:13:55;0.97;;;0.70;;
7116;SDS011;3600;48.568;7.870;2022-08-01T16:16:22;2.55;;;0.80;;
7116;SDS011;3600;48.568;7.870;2022-08-01T16:18:48;2.03;;;0.80;;
7116;SDS011;3600;48.568;7.870;2022-08-01T16:21:19;2.05;;;0.93;;
7116;SDS011;3600;48.568;7.870;2022-08-01T16:23:47;1.13;;;0.85;;
7116;SDS011;3600;48.568;7.870;2022-08-01T16:26:15;0.70;;;0.70;;
7116;SDS011;3600;48.568;7.870;2022-08-01T16:28:53;1.88;;;0.80;;